sensor_id;sensor_type;location;lat;lon;timestamp;P1;durP1;ratioP1;P2;durP2;ratioP2
68944;SDS011;55984;48.790;8.990;2023-03-01T00:01:12;6.10;;;4.30;;
68944;SDS011;55984;48.790;8.990;2023-03-01T00:03:44;7.00;;;4.77;;
68944;SDS011;55984;48.790;8.990;2023-03-01T00:06:09;6.80;;;4.30;;
68944;SDS011;55984;48.790;8.990;2023-03-01T00:08:36;7.83;;;4.60;;
68944;SDS011;55984;48.790;8.990;2023-03-01T00:13:40;7.50;;;4.60;;
68944;SDS011;55984;48.790;8.990;2023-03-01T00:16:08;6.87;;;4.40;;
68944;SDS011;55984;48.790;8.990;2023-03-01T00:18:37;5.93;;;4.50;;
68944;SDS011;55984;48.790;8.990;2023-03-01T00:21:03;7.10;;;4.60;;
68944;SDS011;55984;48.790;8.990;2023-03-01T00:23:29;7.00;;;4.60;;
68944;SDS011;55984;48.790;8.990;2023-03-01T00:25:55;7.37;;;4.73;;
68944;SDS011;55984;48.790;8.990;2023-03-01T00:28:20;6.10;;;4.37;;
68944;SDS011;55984;48.790;8.990;2023-03-01T00:30:46;6.10;;;4.07;;
68944;SDS011;55984;48.790;8.990;2023-03-01T00:33:12;7.50;;;4.90;;
68944;SDS011;55984;48.790;8.990;2023-03-01T00:35:38;5.57;;;4.30;;
68944;SDS011;55984;48.790;8.990;2023-03-01T00:38:03;6.80;;;4.60;;
68944;SDS011;55984;48.790;8.990;2023-03-01T00:40:30;8.23;;;5.20;;
68944;SDS011;55984;48.790;8.990;2023-03-01T00:42:59;6.17;;;4.27;;
68944;SDS011;55984;48.790;8.990;2023-03-01T00:45:25;6.00;;;4.23;;
68944;SDS011;55984;48.790;8.990;2023-03-01T00:47:51;5.57;;;4.17;;
68944;SDS011;55984;48.790;8.990;2023-03-01T00:50:17;4.97;;;4.00;;
68944;SDS011;55984;48.790;8.990;2023-03-01T00:52:43;7.23;;;4.63;;
68944;SDS011;55984;48.790;8.990;2023-03-01T00:55:09;10.40;;;4.50;;
68944;SDS011;55984;48.790;8.990;2023-03-01T00:57:35;5.90;;;4.17;;
68944;SDS011;55984;48.790;8.990;2023-03-01T01:00:00;5.90;;;4.40;;
68944;SDS011;55984;48.790;8.990;2023-03-01T01:02:26;6.23;;;4.50;;
68944;SDS011;55984;48.790;8.990;2023-03-01T01:04:52;6.70;;;4.43;;
68944;SDS011;55984;48.790;8.990;2023-03-01T01:07:17;5.63;;;4.40;;
68944;SDS011;55984;48.790;8.990;2023-03-01T01:09:45;5.57;;;4.17;;
68944;SDS011;55984;48.790;8.990;2023-03-01T01:12:11;6.07;;;4.30;;
68944;SDS011;55984;48.790;8.990;2023-03-01T01:14:36;6.20;;;4.43;;
68944;SDS011;55984;48.790;8.990;2023-03-01T01:17:02;6.70;;;4.40;;
68944;SDS011;55984;48.790;8.990;2023-03-01T01:19:27;5.70;;;4.10;;
68944;SDS011;55984;48.790;8.990;2023-03-01T01:21:53;5.00;;;4.13;;
68944;SDS011;55984;48.790;8.990;2023-03-01T01:24:18;5.30;;;4.00;;
68944;SDS011;55984;48.790;8.990;2023-03-01T01:26:44;6.87;;;4.33;;
68944;SDS011;55984;48.790;8.990;2023-03-01T01:29:10;7.00;;;4.50;;
68944;SDS011;55984;48.790;8.990;2023-03-01T01:31:37;5.87;;;4.47;;
68944;SDS011;55984;48.790;8.990;2023-03-01T01:34:05;7.13;;;4.30;;
68944;SDS011;55984;48.790;8.990;2023-03-01T01:36:33;5.43;;;4.07;;
68944;SDS011;55984;48.790;8.990;2023-03-01T01:38:59;5.77;;;4.17;;
68944;SDS011;55984;48.790;8.990;2023-03-01T01:41:25;5.93;;;4.50;;
68944;SDS011;55984;48.790;8.990;2023-03-01T01:44:12;5.70;;;4.40;;
68944;SDS011;55984;48.790;8.990;2023-03-01T01:46:59;5.90;;;4.10;;
68944;SDS011;55984;48.790;8.990;2023-03-01T01:49:40;7.17;;;4.30;;
68944;SDS011;55984;48.790;8.990;2023-03-01T01:54:56;8.20;;;5.10;;
68944;SDS011;55984;48.790;8.990;2023-03-01T01:57:37;6.03;;;4.60;;
68944;SDS011;55984;48.790;8.990;2023-03-01T02:00:09;7.97;;;4.20;;
68944;SDS011;55984;48.790;8.990;2023-03-01T02:02:49;6.97;;;4.57;;
68944;SDS011;55984;48.790;8.990;2023-03-01T02:07:57;5.83;;;4.40;;
68944;SDS011;55984;48.790;8.990;2023-03-01T02:10:24;6.07;;;4.57;;
68944;SDS011;55984;48.790;8.990;2023-03-01T02:12:51;7.43;;;4.27;;
68944;SDS011;55984;48.790;8.990;2023-03-01T02:15:18;7.20;;;4.60;;
68944;SDS011;55984;48.790;8.990;2023-03-01T02:17:43;6.47;;;4.60;;
68944;SDS011;55984;48.790;8.990;2023-03-01T02:20:54;8.03;;;4.77;;
68944;SDS011;55984;48.790;8.990;2023-03-01T02:23:21;8.60;;;5.10;;
68944;SDS011;55984;48.790;8.990;2023-03-01T02:28:56;5.30;;;4.20;;
68944;SDS011;55984;48.790;8.990;2023-03-01T02:31:21;6.10;;;4.57;;
68944;SDS011;55984;48.790;8.990;2023-03-01T02:34:05;5.27;;;4.53;;
68944;SDS011;55984;48.790;8.990;2023-03-01T02:36:34;5.50;;;4.20;;
68944;SDS011;55984;48.790;8.990;2023-03-01T02:39:25;6.27;;;3.90;;
68944;SDS011;55984;48.790;8.990;2023-03-01T02:41:56;5.80;;;4.63;;
68944;SDS011;55984;48.790;8.990;2023-03-01T02:44:22;6.10;;;4.40;;
68944;SDS011;55984;48.790;8.990;2023-03-01T02:46:52;7.00;;;4.60;;
68944;SDS011;55984;48.790;8.990;2023-03-01T02:49:27;5.87;;;4.33;;
68944;SDS011;55984;48.790;8.990;2023-03-01T02:57:23;6.90;;;4.70;;
68944;SDS011;55984;48.790;8.990;2023-03-01T02:59:52;8.67;;;4.40;;
68944;SDS011;55984;48.790;8.990;2023-03-01T03:02:24;5.60;;;4.10;;
68944;SDS011;55984;48.790;8.990;2023-03-01T03:05:01;7.20;;;4.90;;
68944;SDS011;55984;48.790;8.990;2023-03-01T03:07:41;5.77;;;4.43;;
68944;SDS011;55984;48.790;8.990;2023-03-01T03:10:10;5.97;;;4.47;;
68944;SDS011;55984;48.790;8.990;2023-03-01T03:12:41;5.73;;;4.53;;
68944;SDS011;55984;48.790;8.990;2023-03-01T03:15:07;5.50;;;4.37;;
68944;SDS011;55984;48.790;8.990;2023-03-01T03:17:35;5.70;;;4.33;;
68944;SDS011;55984;48.790;8.990;2023-03-01T03:20:03;7.43;;;4.50;;
68944;SDS011;55984;48.790;8.990;2023-03-01T03:22:31;5.20;;;4.30;;
68944;SDS011;55984;48.790;8.990;2023-03-01T03:24:59;5.87;;;4.33;;
68944;SDS011;55984;48.790;8.990;2023-03-01T03:27:25;5.73;;;4.10;;
68944;SDS011;55984;48.790;8.990;2023-03-01T03:29:50;5.60;;;4.27;;
68944;SDS011;55984;48.790;8.990;2023-03-01T03:32:15;5.30;;;4.20;;
68944;SDS011;55984;48.790;8.990;2023-03-01T03:34:41;5.57;;;4.23;;
68944;SDS011;55984;48.790;8.990;2023-03-01T03:37:06;5.20;;;4.20;;
68944;SDS011;55984;48.790;8.990;2023-03-01T03:39:52;6.60;;;4.50;;
68944;SDS011;55984;48.790;8.990;2023-03-01T03:42:19;7.00;;;4.60;;
68944;SDS011;55984;48.790;8.990;2023-03-01T03:44:47;5.70;;;4.20;;
68944;SDS011;55984;48.790;8.990;2023-03-01T03:47:12;6.20;;;4.77;;
68944;SDS011;55984;48.790;8.990;2023-03-01T03:49:38;6.23;;;4.57;;
68944;SDS011;55984;48.790;8.990;2023-03-01T03:52:03;5.90;;;4.43;;
68944;SDS011;55984;48.790;8.990;2023-03-01T03:54:29;6.70;;;4.73;;
68944;SDS011;55984;48.790;8.990;2023-03-01T03:56:54;5.73;;;4.33;;
68944;SDS011;55984;48.790;8.990;2023-03-01T03:59:19;6.47;;;4.80;;
68944;SDS011;55984;48.790;8.990;2023-03-01T04:01:45;5.57;;;4.03;;
68944;SDS011;55984;48.790;8.990;2023-03-01T04:04:10;6.00;;;4.40;;
68944;SDS011;55984;48.790;8.990;2023-03-01T04:06:36;6.07;;;4.57;;
68944;SDS011;55984;48.790;8.990;2023-03-01T04:09:01;7.00;;;4.37;;
68944;SDS011;55984;48.790;8.990;2023-03-01T04:11:27;5.70;;;4.23;;
68944;SDS011;55984;48.790;8.990;2023-03-01T04:13:54;6.63;;;4.50;;
68944;SDS011;55984;48.790;8.990;2023-03-01T04:16:22;5.93;;;4.60;;
68944;SDS011;55984;48.790;8.990;2023-03-01T04:18:48;6.47;;;4.80;;
68944;SDS011;55984;48.790;8.990;2023-03-01T04:21:14;7.17;;;4.53;;
68944;SDS011;55984;48.790;8.990;2023-03-01T04:23:40;6.23;;;4.63;;
68944;SDS011;55984;48.790;8.990;2023-03-01T04:26:06;6.20;;;5.00;;
68944;SDS011;55984;48.790;8.990;2023-03-01T04:28:33;5.70;;;4.30;;
68944;SDS011;55984;48.790;8.990;2023-03-01T04:31:03;5.77;;;4.70;;
68944;SDS011;55984;48.790;8.990;2023-03-01T04:33:45;6.30;;;4.70;;
68944;SDS011;55984;48.790;8.990;2023-03-01T04:36:14;5.80;;;4.60;;
68944;SDS011;55984;48.790;8.990;2023-03-01T04:38:41;6.17;;;4.50;;
68944;SDS011;55984;48.790;8.990;2023-03-01T04:41:12;6.60;;;4.60;;
68944;SDS011;55984;48.790;8.990;2023-03-01T04:43:38;5.43;;;4.60;;
68944;SDS011;55984;48.790;8.990;2023-03-01T04:46:04;5.47;;;4.30;;
68944;SDS011;55984;48.790;8.990;2023-03-01T04:48:33;5.73;;;4.37;;
68944;SDS011;55984;48.790;8.990;2023-03-01T04:50:59;6.60;;;4.60;;
68944;SDS011;55984;48.790;8.990;2023-03-01T04:53:25;5.70;;;4.47;;
68944;SDS011;55984;48.790;8.990;2023-03-01T04:55:53;5.73;;;4.40;;
68944;SDS011;55984;48.790;8.990;2023-03-01T04:58:23;5.70;;;4.63;;
68944;SDS011;55984;48.790;8.990;2023-03-01T05:00:50;5.27;;;4.30;;
68944;SDS011;55984;48.790;8.990;2023-03-01T05:03:15;6.43;;;4.40;;
68944;SDS011;55984;48.790;8.990;2023-03-01T05:05:43;6.27;;;4.80;;
68944;SDS011;55984;48.790;8.990;2023-03-01T05:08:12;5.23;;;4.70;;
68944;SDS011;55984;48.790;8.990;2023-03-01T05:10:42;6.40;;;4.87;;
68944;SDS011;55984;48.790;8.990;2023-03-01T05:13:14;6.37;;;4.57;;
68944;SDS011;55984;48.790;8.990;2023-03-01T05:15:45;6.40;;;4.70;;
68944;SDS011;55984;48.790;8.990;2023-03-01T05:18:13;6.13;;;4.77;;
68944;SDS011;55984;48.790;8.990;2023-03-01T05:20:38;5.60;;;4.23;;
68944;SDS011;55984;48.790;8.990;2023-03-01T05:23:04;5.43;;;4.37;;
68944;SDS011;55984;48.790;8.990;2023-03-01T05:25:30;6.77;;;4.70;;
68944;SDS011;55984;48.790;8.990;2023-03-01T05:28:02;6.43;;;4.80;;
68944;SDS011;55984;48.790;8.990;2023-03-01T05:30:33;6.07;;;4.50;;
68944;SDS011;55984;48.790;8.990;2023-03-01T05:32:59;5.90;;;4.60;;
68944;SDS011;55984;48.790;8.990;2023-03-01T05:35:25;6.40;;;4.80;;
68944;SDS011;55984;48.790;8.990;2023-03-01T05:37:51;6.10;;;4.70;;
68944;SDS011;55984;48.790;8.990;2023-03-01T05:40:21;6.20;;;4.57;;
68944;SDS011;55984;48.790;8.990;2023-03-01T05:42:49;6.37;;;4.90;;
68944;SDS011;55984;48.790;8.990;2023-03-01T05:45:22;5.93;;;4.60;;
68944;SDS011;55984;48.790;8.990;2023-03-01T05:47:49;8.70;;;5.20;;
68944;SDS011;55984;48.790;8.990;2023-03-01T05:50:17;5.83;;;4.47;;
68944;SDS011;55984;48.790;8.990;2023-03-01T05:52:49;6.30;;;4.67;;
68944;SDS011;55984;48.790;8.990;2023-03-01T05:55:21;6.57;;;4.43;;
68944;SDS011;55984;48.790;8.990;2023-03-01T05:57:46;6.20;;;4.77;;
68944;SDS011;55984;48.790;8.990;2023-03-01T06:00:13;6.30;;;4.70;;
68944;SDS011;55984;48.790;8.990;2023-03-01T06:02:40;14.13;;;5.53;;
68944;SDS011;55984;48.790;8.990;2023-03-01T06:05:07;8.00;;;4.93;;
68944;SDS011;55984;48.790;8.990;2023-03-01T06:07:34;11.73;;;4.87;;
68944;SDS011;55984;48.790;8.990;2023-03-01T06:10:00;10.67;;;5.13;;
68944;SDS011;55984;48.790;8.990;2023-03-01T06:12:29;11.07;;;5.03;;
68944;SDS011;55984;48.790;8.990;2023-03-01T06:14:57;8.87;;;4.60;;
68944;SDS011;55984;48.790;8.990;2023-03-01T06:17:23;9.43;;;5.10;;
68944;SDS011;55984;48.790;8.990;2023-03-01T06:19:48;10.97;;;5.30;;
68944;SDS011;55984;48.790;8.990;2023-03-01T06:22:14;6.27;;;4.63;;
68944;SDS011;55984;48.790;8.990;2023-03-01T06:24:39;8.90;;;5.63;;
68944;SDS011;55984;48.790;8.990;2023-03-01T06:27:05;9.40;;;5.27;;
68944;SDS011;55984;48.790;8.990;2023-03-01T06:29:30;10.90;;;5.00;;
68944;SDS011;55984;48.790;8.990;2023-03-01T06:31:56;6.33;;;5.20;;
68944;SDS011;55984;48.790;8.990;2023-03-01T06:34:21;8.40;;;5.57;;
68944;SDS011;55984;48.790;8.990;2023-03-01T06:36:47;8.40;;;5.50;;
68944;SDS011;55984;48.790;8.990;2023-03-01T06:39:12;7.90;;;5.20;;
68944;SDS011;55984;48.790;8.990;2023-03-01T06:41:38;7.50;;;5.23;;
68944;SDS011;55984;48.790;8.990;2023-03-01T06:44:03;7.60;;;5.57;;
68944;SDS011;55984;48.790;8.990;2023-03-01T06:46:29;8.87;;;6.03;;
68944;SDS011;55984;48.790;8.990;2023-03-01T06:48:54;8.20;;;5.80;;
68944;SDS011;55984;48.790;8.990;2023-03-01T06:51:20;10.40;;;5.50;;
68944;SDS011;55984;48.790;8.990;2023-03-01T06:53:45;9.80;;;5.00;;
68944;SDS011;55984;48.790;8.990;2023-03-01T06:56:11;8.40;;;5.53;;
68944;SDS011;55984;48.790;8.990;2023-03-01T06:58:37;7.27;;;5.90;;
68944;SDS011;55984;48.790;8.990;2023-03-01T07:01:06;7.93;;;5.70;;
68944;SDS011;55984;48.790;8.990;2023-03-01T07:03:32;8.10;;;5.50;;
68944;SDS011;55984;48.790;8.990;2023-03-01T07:05:57;8.27;;;5.60;;
68944;SDS011;55984;48.790;8.990;2023-03-01T07:08:23;7.73;;;5.60;;
68944;SDS011;55984;48.790;8.990;2023-03-01T07:10:54;10.00;;;6.10;;
68944;SDS011;55984;48.790;8.990;2023-03-01T07:13:23;10.17;;;6.20;;
68944;SDS011;55984;48.790;8.990;2023-03-01T07:15:49;10.00;;;6.23;;
68944;SDS011;55984;48.790;8.990;2023-03-01T07:18:14;8.63;;;5.80;;
68944;SDS011;55984;48.790;8.990;2023-03-01T07:20:40;10.00;;;6.40;;
68944;SDS011;55984;48.790;8.990;2023-03-01T07:23:05;13.50;;;6.43;;
68944;SDS011;55984;48.790;8.990;2023-03-01T07:25:31;9.43;;;6.00;;
68944;SDS011;55984;48.790;8.990;2023-03-01T07:27:57;8.77;;;6.07;;
68944;SDS011;55984;48.790;8.990;2023-03-01T07:30:23;11.07;;;7.03;;
68944;SDS011;55984;48.790;8.990;2023-03-01T07:32:51;9.77;;;6.30;;
68944;SDS011;55984;48.790;8.990;2023-03-01T07:35:16;14.23;;;6.70;;
68944;SDS011;55984;48.790;8.990;2023-03-01T07:37:42;10.47;;;6.53;;
68944;SDS011;55984;48.790;8.990;2023-03-01T07:40:08;21.03;;;6.00;;
68944;SDS011;55984;48.790;8.990;2023-03-01T07:42:34;14.07;;;6.90;;
68944;SDS011;55984;48.790;8.990;2023-03-01T07:45:00;15.37;;;7.20;;
68944;SDS011;55984;48.790;8.990;2023-03-01T07:47:25;16.23;;;7.00;;
68944;SDS011;55984;48.790;8.990;2023-03-01T07:49:51;13.70;;;6.70;;
68944;SDS011;55984;48.790;8.990;2023-03-01T07:52:16;16.53;;;6.40;;
68944;SDS011;55984;48.790;8.990;2023-03-01T07:54:42;18.50;;;7.10;;
68944;SDS011;55984;48.790;8.990;2023-03-01T07:57:09;10.93;;;6.97;;
68944;SDS011;55984;48.790;8.990;2023-03-01T07:59:35;15.57;;;7.27;;
68944;SDS011;55984;48.790;8.990;2023-03-01T08:02:00;17.20;;;8.07;;
68944;SDS011;55984;48.790;8.990;2023-03-01T08:04:25;13.97;;;7.20;;
68944;SDS011;55984;48.790;8.990;2023-03-01T08:06:51;20.70;;;7.13;;
68944;SDS011;55984;48.790;8.990;2023-03-01T08:09:18;15.70;;;7.30;;
68944;SDS011;55984;48.790;8.990;2023-03-01T08:11:43;11.77;;;7.20;;
68944;SDS011;55984;48.790;8.990;2023-03-01T08:14:09;13.60;;;7.23;;
68944;SDS011;55984;48.790;8.990;2023-03-01T08:16:35;14.50;;;7.07;;
68944;SDS011;55984;48.790;8.990;2023-03-01T08:19:08;11.63;;;6.90;;
68944;SDS011;55984;48.790;8.990;2023-03-01T08:21:36;12.83;;;7.30;;
68944;SDS011;55984;48.790;8.990;2023-03-01T08:24:02;13.70;;;7.07;;
68944;SDS011;55984;48.790;8.990;2023-03-01T08:26:32;14.47;;;7.53;;
68944;SDS011;55984;48.790;8.990;2023-03-01T08:28:59;14.27;;;7.17;;
68944;SDS011;55984;48.790;8.990;2023-03-01T08:31:26;11.87;;;7.43;;
68944;SDS011;55984;48.790;8.990;2023-03-01T08:34:01;14.70;;;7.60;;
68944;SDS011;55984;48.790;8.990;2023-03-01T08:36:30;15.80;;;7.60;;
68944;SDS011;55984;48.790;8.990;2023-03-01T08:38:59;12.27;;;7.53;;
68944;SDS011;55984;48.790;8.990;2023-03-01T08:41:25;12.43;;;7.07;;
68944;SDS011;55984;48.790;8.990;2023-03-01T08:43:50;13.80;;;7.83;;
68944;SDS011;55984;48.790;8.990;2023-03-01T08:46:17;13.07;;;7.60;;
68944;SDS011;55984;48.790;8.990;2023-03-01T08:48:43;14.90;;;7.93;;
68944;SDS011;55984;48.790;8.990;2023-03-01T08:53:37;11.53;;;7.10;;
68944;SDS011;55984;48.790;8.990;2023-03-01T08:56:03;14.53;;;7.20;;
68944;SDS011;55984;48.790;8.990;2023-03-01T08:58:28;12.00;;;7.03;;
68944;SDS011;55984;48.790;8.990;2023-03-01T09:00:54;12.57;;;7.67;;
68944;SDS011;55984;48.790;8.990;2023-03-01T09:03:21;14.07;;;7.00;;
68944;SDS011;55984;48.790;8.990;2023-03-01T09:05:48;12.33;;;7.37;;
68944;SDS011;55984;48.790;8.990;2023-03-01T09:08:15;11.77;;;6.77;;
68944;SDS011;55984;48.790;8.990;2023-03-01T09:10:41;10.20;;;6.90;;
68944;SDS011;55984;48.790;8.990;2023-03-01T09:13:07;12.57;;;7.40;;
68944;SDS011;55984;48.790;8.990;2023-03-01T09:15:32;13.13;;;7.70;;
68944;SDS011;55984;48.790;8.990;2023-03-01T09:17:58;16.47;;;7.47;;
68944;SDS011;55984;48.790;8.990;2023-03-01T09:20:24;11.80;;;6.83;;
68944;SDS011;55984;48.790;8.990;2023-03-01T09:22:50;13.30;;;7.00;;
68944;SDS011;55984;48.790;8.990;2023-03-01T09:25:15;10.83;;;6.90;;
68944;SDS011;55984;48.790;8.990;2023-03-01T09:27:41;13.20;;;7.10;;
68944;SDS011;55984;48.790;8.990;2023-03-01T09:30:07;12.57;;;7.27;;
68944;SDS011;55984;48.790;8.990;2023-03-01T09:32:33;12.13;;;6.83;;
68944;SDS011;55984;48.790;8.990;2023-03-01T09:34:59;10.87;;;6.57;;
68944;SDS011;55984;48.790;8.990;2023-03-01T09:37:31;10.93;;;6.90;;
68944;SDS011;55984;48.790;8.990;2023-03-01T09:39:58;12.43;;;6.67;;
68944;SDS011;55984;48.790;8.990;2023-03-01T09:42:24;11.70;;;7.00;;
68944;SDS011;55984;48.790;8.990;2023-03-01T09:47:36;11.73;;;6.43;;
68944;SDS011;55984;48.790;8.990;2023-03-01T09:50:15;9.40;;;6.87;;
68944;SDS011;55984;48.790;8.990;2023-03-01T09:52:46;12.90;;;6.87;;
68944;SDS011;55984;48.790;8.990;2023-03-01T09:58:28;11.50;;;7.17;;
68944;SDS011;55984;48.790;8.990;2023-03-01T10:07:36;13.40;;;6.70;;
68944;SDS011;55984;48.790;8.990;2023-03-01T10:09:39;9.70;;;6.83;;
68944;SDS011;55984;48.790;8.990;2023-03-01T10:12:18;14.17;;;6.70;;
68944;SDS011;55984;48.790;8.990;2023-03-01T10:14:57;11.37;;;6.90;;
68944;SDS011;55984;48.790;8.990;2023-03-01T10:17:46;12.70;;;7.20;;
68944;SDS011;55984;48.790;8.990;2023-03-01T10:20:23;10.97;;;7.10;;
68944;SDS011;55984;48.790;8.990;2023-03-01T10:23:08;10.70;;;6.93;;
68944;SDS011;55984;48.790;8.990;2023-03-01T10:31:37;13.20;;;6.73;;
68944;SDS011;55984;48.790;8.990;2023-03-01T10:34:16;9.87;;;6.63;;
68944;SDS011;55984;48.790;8.990;2023-03-01T10:36:47;12.83;;;7.10;;
68944;SDS011;55984;48.790;8.990;2023-03-01T10:39:17;12.37;;;6.83;;
68944;SDS011;55984;48.790;8.990;2023-03-01T10:41:57;12.63;;;6.80;;
68944;SDS011;55984;48.790;8.990;2023-03-01T10:44:43;10.40;;;7.20;;
68944;SDS011;55984;48.790;8.990;2023-03-01T10:47:13;9.03;;;6.73;;
68944;SDS011;55984;48.790;8.990;2023-03-01T10:50:45;11.77;;;6.40;;
68944;SDS011;55984;48.790;8.990;2023-03-01T10:52:58;10.57;;;6.80;;
68944;SDS011;55984;48.790;8.990;2023-03-01T10:55:31;10.53;;;6.50;;
68944;SDS011;55984;48.790;8.990;2023-03-01T10:58:17;9.10;;;6.27;;
68944;SDS011;55984;48.790;8.990;2023-03-01T11:00:52;9.70;;;6.70;;
68944;SDS011;55984;48.790;8.990;2023-03-01T11:03:26;12.37;;;6.70;;
68944;SDS011;55984;48.790;8.990;2023-03-01T11:08:45;10.43;;;6.67;;
68944;SDS011;55984;48.790;8.990;2023-03-01T11:11:32;10.60;;;6.50;;
68944;SDS011;55984;48.790;8.990;2023-03-01T11:14:16;10.20;;;6.60;;
68944;SDS011;55984;48.790;8.990;2023-03-01T11:16:48;24.63;;;6.70;;
68944;SDS011;55984;48.790;8.990;2023-03-01T11:19:23;11.90;;;5.87;;
68944;SDS011;55984;48.790;8.990;2023-03-01T11:21:55;10.30;;;6.80;;
68944;SDS011;55984;48.790;8.990;2023-03-01T11:27:17;7.80;;;5.57;;
68944;SDS011;55984;48.790;8.990;2023-03-01T11:29:56;7.80;;;6.07;;
68944;SDS011;55984;48.790;8.990;2023-03-01T11:32:34;8.00;;;5.83;;
68944;SDS011;55984;48.790;8.990;2023-03-01T11:35:10;9.00;;;6.20;;
68944;SDS011;55984;48.790;8.990;2023-03-01T11:41:01;9.37;;;6.20;;
68944;SDS011;55984;48.790;8.990;2023-03-01T11:44:16;8.87;;;6.33;;
68944;SDS011;55984;48.790;8.990;2023-03-01T11:46:49;8.60;;;5.97;;
68944;SDS011;55984;48.790;8.990;2023-03-01T11:52:59;9.23;;;6.20;;
68944;SDS011;55984;48.790;8.990;2023-03-01T12:19:01;11.27;;;7.40;;
68944;SDS011;55984;48.790;8.990;2023-03-01T12:24:57;12.33;;;7.50;;
68944;SDS011;55984;48.790;8.990;2023-03-01T12:27:46;12.63;;;7.77;;
68944;SDS011;55984;48.790;8.990;2023-03-01T12:30:42;16.00;;;8.53;;
68944;SDS011;55984;48.790;8.990;2023-03-01T12:33:46;12.83;;;7.77;;
68944;SDS011;55984;48.790;8.990;2023-03-01T12:36:29;10.97;;;7.97;;
68944;SDS011;55984;48.790;8.990;2023-03-01T12:45:21;11.63;;;7.50;;
68944;SDS011;55984;48.790;8.990;2023-03-01T12:50:51;12.90;;;8.00;;
68944;SDS011;55984;48.790;8.990;2023-03-01T12:53:22;12.47;;;8.10;;
68944;SDS011;55984;48.790;8.990;2023-03-01T12:55:49;10.13;;;7.73;;
68944;SDS011;55984;48.790;8.990;2023-03-01T13:01:50;11.90;;;7.07;;
68944;SDS011;55984;48.790;8.990;2023-03-01T13:07:47;10.53;;;6.90;;
68944;SDS011;55984;48.790;8.990;2023-03-01T13:15:33;16.33;;;7.43;;
68944;SDS011;55984;48.790;8.990;2023-03-01T13:18:26;10.23;;;7.30;;
68944;SDS011;55984;48.790;8.990;2023-03-01T13:20:53;10.60;;;6.90;;
68944;SDS011;55984;48.790;8.990;2023-03-01T13:30:57;14.10;;;7.53;;
68944;SDS011;55984;48.790;8.990;2023-03-01T13:35:51;12.27;;;7.63;;
68944;SDS011;55984;48.790;8.990;2023-03-01T13:44:11;10.07;;;6.80;;
68944;SDS011;55984;48.790;8.990;2023-03-01T13:46:48;10.37;;;6.67;;
68944;SDS011;55984;48.790;8.990;2023-03-01T13:49:44;11.13;;;6.87;;
68944;SDS011;55984;48.790;8.990;2023-03-01T13:52:43;8.80;;;6.30;;
68944;SDS011;55984;48.790;8.990;2023-03-01T13:55:42;9.33;;;6.77;;
68944;SDS011;55984;48.790;8.990;2023-03-01T14:01:02;9.10;;;7.03;;
68944;SDS011;55984;48.790;8.990;2023-03-01T14:03:34;10.37;;;6.70;;
68944;SDS011;55984;48.790;8.990;2023-03-01T14:06:08;9.90;;;6.93;;
68944;SDS011;55984;48.790;8.990;2023-03-01T14:08:40;10.23;;;6.97;;
68944;SDS011;55984;48.790;8.990;2023-03-01T14:16:55;8.63;;;6.23;;
68944;SDS011;55984;48.790;8.990;2023-03-01T14:19:45;9.80;;;6.60;;
68944;SDS011;55984;48.790;8.990;2023-03-01T14:22:52;9.13;;;5.97;;
68944;SDS011;55984;48.790;8.990;2023-03-01T14:25:22;7.60;;;5.80;;
68944;SDS011;55984;48.790;8.990;2023-03-01T14:28:13;8.70;;;5.73;;
68944;SDS011;55984;48.790;8.990;2023-03-01T14:30:54;7.60;;;5.97;;
68944;SDS011;55984;48.790;8.990;2023-03-01T14:35:53;10.37;;;6.57;;
68944;SDS011;55984;48.790;8.990;2023-03-01T14:38:32;7.93;;;5.97;;
68944;SDS011;55984;48.790;8.990;2023-03-01T14:41:09;9.30;;;6.10;;
68944;SDS011;55984;48.790;8.990;2023-03-01T14:43:41;9.27;;;6.60;;
68944;SDS011;55984;48.790;8.990;2023-03-01T14:46:19;8.50;;;6.20;;
68944;SDS011;55984;48.790;8.990;2023-03-01T14:48:49;8.83;;;6.20;;
68944;SDS011;55984;48.790;8.990;2023-03-01T14:51:18;10.00;;;6.70;;
68944;SDS011;55984;48.790;8.990;2023-03-01T14:53:43;7.90;;;6.00;;
68944;SDS011;55984;48.790;8.990;2023-03-01T14:56:13;7.50;;;5.90;;
68944;SDS011;55984;48.790;8.990;2023-03-01T14:58:44;9.90;;;5.90;;
68944;SDS011;55984;48.790;8.990;2023-03-01T15:01:13;9.43;;;6.20;;
68944;SDS011;55984;48.790;8.990;2023-03-01T15:03:42;7.57;;;5.70;;
68944;SDS011;55984;48.790;8.990;2023-03-01T15:06:12;11.70;;;6.10;;
68944;SDS011;55984;48.790;8.990;2023-03-01T15:08:47;8.20;;;6.00;;
68944;SDS011;55984;48.790;8.990;2023-03-01T15:11:21;8.47;;;5.57;;
68944;SDS011;55984;48.790;8.990;2023-03-01T15:13:57;8.07;;;5.97;;
68944;SDS011;55984;48.790;8.990;2023-03-01T15:18:56;8.50;;;6.20;;
68944;SDS011;55984;48.790;8.990;2023-03-01T15:21:32;7.80;;;6.00;;
68944;SDS011;55984;48.790;8.990;2023-03-01T15:26:55;8.07;;;5.80;;
68944;SDS011;55984;48.790;8.990;2023-03-01T15:29:32;7.87;;;5.90;;
68944;SDS011;55984;48.790;8.990;2023-03-01T15:32:06;10.03;;;6.33;;
68944;SDS011;55984;48.790;8.990;2023-03-01T15:34:47;10.10;;;6.03;;
68944;SDS011;55984;48.790;8.990;2023-03-01T15:42:58;9.80;;;6.30;;
68944;SDS011;55984;48.790;8.990;2023-03-01T15:45:25;9.53;;;6.00;;
68944;SDS011;55984;48.790;8.990;2023-03-01T15:47:54;8.97;;;5.77;;
68944;SDS011;55984;48.790;8.990;2023-03-01T15:50:57;8.67;;;6.13;;
68944;SDS011;55984;48.790;8.990;2023-03-01T15:53:24;7.50;;;5.67;;
68944;SDS011;55984;48.790;8.990;2023-03-01T15:55:51;7.10;;;5.33;;
68944;SDS011;55984;48.790;8.990;2023-03-01T15:58:22;9.43;;;5.90;;
68944;SDS011;55984;48.790;8.990;2023-03-01T16:00:50;12.37;;;6.00;;
68944;SDS011;55984;48.790;8.990;2023-03-01T16:03:20;26.00;;;6.30;;
68944;SDS011;55984;48.790;8.990;2023-03-01T16:05:51;14.63;;;5.80;;
68944;SDS011;55984;48.790;8.990;2023-03-01T16:08:17;31.67;;;6.37;;
68944;SDS011;55984;48.790;8.990;2023-03-01T16:10:43;20.40;;;6.57;;
68944;SDS011;55984;48.790;8.990;2023-03-01T16:13:11;16.77;;;5.90;;
68944;SDS011;55984;48.790;8.990;2023-03-01T16:15:37;26.30;;;5.93;;
68944;SDS011;55984;48.790;8.990;2023-03-01T16:18:04;23.93;;;6.13;;
68944;SDS011;55984;48.790;8.990;2023-03-01T16:20:31;33.67;;;6.53;;
68944;SDS011;55984;48.790;8.990;2023-03-01T16:22:57;37.27;;;7.33;;
68944;SDS011;55984;48.790;8.990;2023-03-01T16:25:27;44.00;;;8.40;;
68944;SDS011;55984;48.790;8.990;2023-03-01T16:27:54;50.93;;;8.13;;
68944;SDS011;55984;48.790;8.990;2023-03-01T16:30:21;53.90;;;8.20;;
68944;SDS011;55984;48.790;8.990;2023-03-01T16:32:48;39.17;;;7.70;;
68944;SDS011;55984;48.790;8.990;2023-03-01T16:35:15;44.17;;;7.40;;
68944;SDS011;55984;48.790;8.990;2023-03-01T16:37:43;24.57;;;6.73;;
68944;SDS011;55984;48.790;8.990;2023-03-01T16:40:23;27.40;;;6.90;;
68944;SDS011;55984;48.790;8.990;2023-03-01T16:42:51;27.97;;;6.77;;
68944;SDS011;55984;48.790;8.990;2023-03-01T16:45:18;27.70;;;7.00;;
68944;SDS011;55984;48.790;8.990;2023-03-01T16:47:44;15.27;;;6.30;;
68944;SDS011;55984;48.790;8.990;2023-03-01T16:50:10;30.67;;;6.70;;
68944;SDS011;55984;48.790;8.990;2023-03-01T16:52:36;17.50;;;6.47;;
68944;SDS011;55984;48.790;8.990;2023-03-01T16:55:03;18.47;;;6.53;;
68944;SDS011;55984;48.790;8.990;2023-03-01T16:57:33;17.60;;;6.07;;
68944;SDS011;55984;48.790;8.990;2023-03-01T16:59:59;19.50;;;6.10;;
68944;SDS011;55984;48.790;8.990;2023-03-01T17:02:24;14.87;;;5.73;;
68944;SDS011;55984;48.790;8.990;2023-03-01T17:04:51;14.33;;;5.77;;
68944;SDS011;55984;48.790;8.990;2023-03-01T17:07:18;19.80;;;6.47;;
68944;SDS011;55984;48.790;8.990;2023-03-01T17:09:44;19.43;;;6.03;;
68944;SDS011;55984;48.790;8.990;2023-03-01T17:12:11;12.67;;;6.20;;
68944;SDS011;55984;48.790;8.990;2023-03-01T17:14:38;17.70;;;6.50;;
68944;SDS011;55984;48.790;8.990;2023-03-01T17:17:06;13.43;;;6.10;;